Wilson, Idaho
Current Conditions -  °F | °C
As of 7:15 AM on Thursday 29 Jan 2015 (Local Time) from KMAN Reporting Station
NA  
Wind Chill: 27°   Ceiling: NA
Heat Index: 32°   Visibility: 10mi
Dew Point: 32°   Wind: 5mph
Humidity: 100%   Direction: 120°ESE
Pressure: 30.43"   Gusts: NA
Location:  43.3697°N, 116.52°W
Report Text: KMAN 291415Z AUTO 12004KT 10SM 00/00 A3043 RMK AO1
Loading
Personal Weather Stations






























Interactive Weather Map New forecast layout! Learn more

10-Day Weather Forecast

Advertisements
Track Severe Weather on mobile